createdAt,value
2017-10-03T00:00:16.152Z,72.00
2017-10-03T00:02:49.003Z,72.00
2017-10-03T00:05:18.476Z,71.90
2017-10-03T00:07:47.421Z,71.90
2017-10-03T00:10:16.168Z,71.70
2017-10-03T00:12:51.293Z,71.70
2017-10-03T00:15:21.120Z,71.70
2017-10-03T00:17:49.849Z,71.70
2017-10-03T00:20:18.624Z,71.70
2017-10-03T00:22:57.243Z,71.80
2017-10-03T00:25:27.082Z,71.60
2017-10-03T00:28:01.828Z,71.60
2017-10-03T00:30:31.424Z,71.60
2017-10-03T00:33:06.346Z,71.60
2017-10-03T00:35:35.248Z,71.50
2017-10-03T00:38:04.859Z,71.50
2017-10-03T00:40:33.539Z,71.50
2017-10-03T00:43:02.244Z,71.40
2017-10-03T00:45:30.935Z,71.50
2017-10-03T00:47:59.637Z,71.60
2017-10-03T00:50:28.315Z,71.60
2017-10-03T00:52:57.957Z,71.60
2017-10-03T00:55:27.420Z,71.70
2017-10-03T00:58:02.395Z,71.70
2017-10-03T01:00:31.858Z,72.10
2017-10-03T01:03:00.549Z,72.00
2017-10-03T01:05:29.254Z,72.20
2017-10-03T01:08:04.015Z,72.10
2017-10-03T01:10:32.732Z,72.10
2017-10-03T01:13:03.379Z,72.30
2017-10-03T01:15:33.086Z,72.50
2017-10-03T01:18:05.750Z,72.60
2017-10-03T01:20:40.616Z,72.60
2017-10-03T01:23:09.309Z,72.60
2017-10-03T01:25:39.936Z,72.60
2017-10-03T01:28:14.260Z,72.60
2017-10-03T01:30:42.940Z,72.70
2017-10-03T01:33:11.633Z,72.70
2017-10-03T01:35:46.507Z,72.70
2017-10-03T01:38:15.209Z,72.70
2017-10-03T01:40:43.887Z,72.70
2017-10-03T01:43:17.600Z,72.50
2017-10-03T01:45:54.860Z,72.70
2017-10-03T01:48:23.552Z,72.80
2017-10-03T01:50:53.886Z,72.90
2017-10-03T01:53:22.576Z,72.80
2017-10-03T01:55:51.263Z,72.90
2017-10-03T01:58:19.959Z,72.90
2017-10-03T02:00:48.663Z,73.00
2017-10-03T02:03:21.348Z,73.00
2017-10-03T02:05:52.877Z,73.20
2017-10-03T02:08:21.948Z,73.10
2017-10-03T02:10:50.648Z,73.30
2017-10-03T02:13:25.640Z,73.50
2017-10-03T02:15:54.328Z,73.40
2017-10-03T02:18:27.061Z,73.40
2017-10-03T02:20:55.760Z,73.40
2017-10-03T02:23:24.442Z,73.40
2017-10-03T02:26:22.815Z,73.60
2017-10-03T02:28:51.503Z,73.80
2017-10-03T02:31:26.303Z,73.90
2017-10-03T02:33:54.979Z,73.90
2017-10-03T02:36:23.676Z,73.80
2017-10-03T02:38:54.000Z,73.70
2017-10-03T02:41:26.512Z,73.80
2017-10-03T02:43:55.199Z,73.70
2017-10-03T02:46:23.884Z,73.40
2017-10-03T02:48:53.460Z,73.50
2017-10-03T02:51:22.152Z,73.50
2017-10-03T02:53:50.844Z,73.40
2017-10-03T02:56:19.528Z,73.30
2017-10-03T02:58:54.500Z,73.20
2017-10-03T03:01:23.970Z,73.20
2017-10-03T03:03:58.916Z,73.20
2017-10-03T03:06:28.373Z,73.50
2017-10-03T03:08:57.145Z,73.30
2017-10-03T03:11:31.724Z,73.40
2017-10-03T03:14:00.411Z,73.40
2017-10-03T03:16:29.109Z,73.40
2017-10-03T03:18:58.571Z,73.50
2017-10-03T03:21:27.283Z,73.60
2017-10-03T03:23:55.971Z,73.70
2017-10-03T03:26:24.660Z,73.80
2017-10-03T03:28:53.355Z,73.90
2017-10-03T03:31:22.803Z,74.10
2017-10-03T03:33:57.851Z,74.10
2017-10-03T03:36:26.993Z,74.20
2017-10-03T03:38:56.476Z,74.80
2017-10-03T03:41:25.171Z,74.10
2017-10-03T03:43:54.715Z,74.00
2017-10-03T03:46:23.540Z,74.00
2017-10-03T03:48:52.634Z,74.00
2017-10-03T03:51:21.305Z,74.00
2017-10-03T03:53:51.642Z,74.20
2017-10-03T03:56:20.351Z,74.20
2017-10-03T03:58:49.044Z,74.20
2017-10-03T04:01:17.727Z,74.30
2017-10-03T04:03:52.552Z,74.30
2017-10-03T04:06:27.724Z,74.40
2017-10-03T04:08:56.460Z,74.40
2017-10-03T04:11:25.171Z,74.40
2017-10-03T04:13:53.916Z,74.40
2017-10-03T04:16:28.860Z,74.60
2017-10-03T04:18:57.586Z,74.40
2017-10-03T04:21:27.182Z,74.40
2017-10-03T04:23:55.864Z,74.40
2017-10-03T04:26:25.363Z,74.30
2017-10-03T04:28:54.069Z,74.40
2017-10-03T04:31:23.545Z,74.30
2017-10-03T04:33:52.261Z,74.20
2017-10-03T04:36:20.993Z,74.50
2017-10-03T04:38:55.848Z,73.00
2017-10-03T04:41:24.549Z,68.70
2017-10-03T04:43:54.007Z,68.00
2017-10-03T04:46:22.696Z,68.00
2017-10-03T04:48:57.247Z,68.90
2017-10-03T04:51:32.268Z,69.10
2017-10-03T04:54:01.008Z,69.20
2017-10-03T04:56:35.863Z,70.00
2017-10-03T04:59:10.796Z,70.60
2017-10-03T05:01:41.127Z,71.30
2017-10-03T05:04:09.823Z,71.20
2017-10-03T05:06:38.514Z,71.10
2017-10-03T05:09:07.239Z,71.60
2017-10-03T05:11:35.971Z,71.80
2017-10-03T05:14:04.684Z,71.70
2017-10-03T05:16:33.370Z,71.70
2017-10-03T05:19:02.840Z,71.20
2017-10-03T05:21:31.534Z,71.20
2017-10-03T05:24:00.247Z,71.20
2017-10-03T05:26:29.736Z,71.70
2017-10-03T05:28:58.454Z,71.60
2017-10-03T05:31:27.917Z,72.20
2017-10-03T05:33:56.612Z,72.10
2017-10-03T05:36:31.610Z,72.00
2017-10-03T05:39:00.299Z,72.40
2017-10-03T05:41:35.271Z,72.50
2017-10-03T05:44:05.895Z,72.10
2017-10-03T05:46:34.615Z,72.00
2017-10-03T05:49:03.307Z,72.00
2017-10-03T05:51:32.001Z,72.00
2017-10-03T05:54:00.713Z,72.30
2017-10-03T05:56:29.559Z,71.80
2017-10-03T05:58:58.286Z,72.00
2017-10-03T06:01:28.984Z,71.80
2017-10-03T06:03:57.699Z,71.20
2017-10-03T06:06:26.418Z,71.10
2017-10-03T06:08:55.121Z,71.50
2017-10-03T06:11:23.863Z,71.60
2017-10-03T06:14:06.596Z,71.50
2017-10-03T06:16:36.093Z,71.40
2017-10-03T06:19:05.593Z,71.20
2017-10-03T06:21:35.089Z,71.20
2017-10-03T06:24:05.698Z,71.00
2017-10-03T06:26:34.686Z,71.70
2017-10-03T06:29:03.464Z,72.00
2017-10-03T06:31:33.148Z,72.00
2017-10-03T06:34:01.874Z,71.90
2017-10-03T06:36:30.572Z,72.00
2017-10-03T06:39:00.053Z,72.00
2017-10-03T06:41:28.767Z,71.90
2017-10-03T06:44:01.856Z,72.00
2017-10-03T06:46:31.482Z,71.60
2017-10-03T06:49:02.032Z,71.60
2017-10-03T06:51:30.816Z,71.40
2017-10-03T06:54:05.673Z,71.10
2017-10-03T06:56:35.173Z,71.40
2017-10-03T06:59:09.979Z,71.40
2017-10-03T07:01:38.663Z,71.50
2017-10-03T07:04:08.352Z,71.60
2017-10-03T07:06:37.515Z,71.20
2017-10-03T07:09:06.247Z,71.20
2017-10-03T07:11:35.937Z,71.20
2017-10-03T07:14:04.704Z,71.40
2017-10-03T07:16:33.412Z,71.20
2017-10-03T07:19:02.115Z,71.10
2017-10-03T07:21:49.469Z,71.20
2017-10-03T07:24:19.150Z,71.00
2017-10-03T07:26:48.073Z,71.00
2017-10-03T07:29:16.882Z,71.20
2017-10-03T07:31:45.939Z,70.90
2017-10-03T07:34:14.954Z,70.80
2017-10-03T07:36:44.737Z,70.90
2017-10-03T07:39:13.467Z,70.90
2017-10-03T07:41:48.427Z,70.70
2017-10-03T07:44:17.482Z,70.40
2017-10-03T07:46:52.416Z,70.50
2017-10-03T07:49:28.020Z,70.40
2017-10-03T07:51:56.716Z,70.40
2017-10-03T07:54:26.971Z,70.40
2017-10-03T07:57:02.655Z,69.40
2017-10-03T07:59:36.573Z,69.40
2017-10-03T08:02:05.284Z,68.40
2017-10-03T08:04:34.992Z,68.90
2017-10-03T08:07:03.675Z,69.30
2017-10-03T08:09:32.403Z,69.10
2017-10-03T08:12:01.596Z,69.10
2017-10-03T08:14:30.475Z,69.20
2017-10-03T08:17:05.678Z,68.20
2017-10-03T08:19:34.410Z,68.20
2017-10-03T08:22:03.120Z,68.00
2017-10-03T08:24:31.815Z,67.60
2017-10-03T08:27:00.614Z,67.50
2017-10-03T08:29:29.477Z,68.00
2017-10-03T08:31:58.203Z,68.10
2017-10-03T08:34:27.829Z,67.60
2017-10-03T08:36:56.539Z,68.10
2017-10-03T08:39:25.278Z,68.50
2017-10-03T08:41:53.995Z,67.60
2017-10-03T08:44:23.444Z,68.40
2017-10-03T08:46:58.303Z,68.30
2017-10-03T08:49:26.993Z,67.40
2017-10-03T08:51:56.535Z,66.70
2017-10-03T08:54:39.143Z,66.50
2017-10-03T08:57:07.835Z,66.00
2017-10-03T08:59:37.360Z,65.70
2017-10-03T09:02:12.157Z,66.00
2017-10-03T09:04:40.852Z,66.80
2017-10-03T09:07:09.540Z,66.70
2017-10-03T09:09:38.223Z,66.60
2017-10-03T09:12:06.957Z,67.10
2017-10-03T09:14:41.902Z,66.70
2017-10-03T09:17:11.363Z,65.00
2017-10-03T09:19:47.135Z,64.90
2017-10-03T09:22:16.624Z,64.70
2017-10-03T09:24:45.409Z,64.50
2017-10-03T09:27:14.991Z,65.70
2017-10-03T09:29:43.708Z,64.70
2017-10-03T09:32:12.391Z,58.60
2017-10-03T09:34:41.111Z,57.70
2017-10-03T09:37:10.864Z,57.50
2017-10-03T09:39:40.357Z,52.30
2017-10-03T09:42:09.155Z,52.30
2017-10-03T09:44:43.929Z,51.70
2017-10-03T09:47:12.679Z,52.90
2017-10-03T09:49:42.191Z,52.20
2017-10-03T09:52:17.764Z,52.40
2017-10-03T09:54:47.226Z,53.60
2017-10-03T09:57:22.104Z,53.50
2017-10-03T09:59:51.831Z,51.90
2017-10-03T10:02:21.278Z,49.30
2017-10-03T10:04:49.989Z,49.20
2017-10-03T10:07:25.511Z,52.20
2017-10-03T10:09:55.234Z,52.20
2017-10-03T10:12:31.182Z,52.30
2017-10-03T10:14:59.900Z,52.20
2017-10-03T10:17:34.816Z,53.50
2017-10-03T10:20:03.527Z,55.10
2017-10-03T10:22:38.299Z,55.40
2017-10-03T10:25:06.983Z,57.00
2017-10-03T10:27:35.698Z,56.10
2017-10-03T10:30:10.704Z,57.00
2017-10-03T10:32:39.407Z,57.60
2017-10-03T10:35:08.796Z,58.80
2017-10-03T10:37:37.483Z,58.70
2017-10-03T10:40:06.169Z,58.80
2017-10-03T10:42:34.852Z,57.60
2017-10-03T10:45:05.228Z,55.90
2017-10-03T10:47:33.916Z,55.80
2017-10-03T10:50:03.428Z,55.20
2017-10-03T10:52:32.876Z,53.10
2017-10-03T10:55:01.555Z,53.00
2017-10-03T10:57:30.246Z,52.70
2017-10-03T11:00:05.900Z,47.50
2017-10-03T11:02:40.867Z,47.40
2017-10-03T11:05:09.544Z,43.20
2017-10-03T11:07:45.094Z,37.80
2017-10-03T11:10:20.720Z,36.80
2017-10-03T11:12:55.633Z,36.40
2017-10-03T11:15:25.191Z,36.80
2017-10-03T11:18:00.354Z,35.70
2017-10-03T11:20:29.919Z,34.50
2017-10-03T11:23:16.744Z,34.60
2017-10-03T11:25:45.429Z,35.20
2017-10-03T11:28:20.403Z,34.20
2017-10-03T11:30:52.166Z,32.50
2017-10-03T11:33:21.140Z,30.70
2017-10-03T11:35:49.893Z,31.00
2017-10-03T11:38:18.600Z,31.70
2017-10-03T11:40:47.299Z,32.70
2017-10-03T11:43:16.784Z,35.40
2017-10-03T11:45:45.499Z,34.70
2017-10-03T11:48:15.052Z,34.30
2017-10-03T11:50:50.959Z,33.40
2017-10-03T11:53:19.649Z,31.70
2017-10-03T11:55:48.340Z,30.80
2017-10-03T11:58:23.256Z,29.90
2017-10-03T12:00:53.600Z,28.50
2017-10-03T12:03:22.422Z,28.50
2017-10-03T12:05:51.112Z,30.20
2017-10-03T12:08:19.792Z,31.30
2017-10-03T12:10:54.675Z,32.00
2017-10-03T12:13:29.677Z,32.60
2017-10-03T12:15:58.355Z,33.50
2017-10-03T12:18:33.539Z,33.90
2017-10-03T12:21:08.511Z,34.70
2017-10-03T12:23:37.195Z,34.30
2017-10-03T12:26:05.919Z,31.90
2017-10-03T12:28:35.380Z,28.60
2017-10-03T12:31:04.942Z,28.60
2017-10-03T12:33:39.623Z,28.20
2017-10-03T12:36:14.404Z,29.60
2017-10-03T12:38:43.108Z,30.10
2017-10-03T12:41:12.013Z,32.50
2017-10-03T12:43:40.712Z,34.20
2017-10-03T12:46:09.399Z,36.40
2017-10-03T12:48:38.088Z,37.60
2017-10-03T12:51:06.775Z,39.60
2017-10-03T12:53:35.459Z,40.70
2017-10-03T12:56:04.148Z,43.00
2017-10-03T12:58:32.831Z,43.70
2017-10-03T13:01:01.608Z,45.10
2017-10-03T13:03:30.291Z,45.70
2017-10-03T13:05:58.972Z,45.00
2017-10-03T13:08:28.435Z,41.80
2017-10-03T13:11:03.311Z,41.70
2017-10-03T13:13:38.774Z,38.10
2017-10-03T13:16:10.456Z,36.90
2017-10-03T13:18:45.604Z,37.00
2017-10-03T13:21:20.516Z,37.40
2017-10-03T13:23:49.191Z,35.80
2017-10-03T13:26:17.888Z,35.10
2017-10-03T13:28:46.569Z,37.30
2017-10-03T13:31:15.263Z,38.80
2017-10-03T13:33:50.329Z,39.30
2017-10-03T13:36:19.021Z,39.50
2017-10-03T13:38:54.559Z,43.60
2017-10-03T13:41:23.266Z,43.60
2017-10-03T13:43:51.953Z,45.20
2017-10-03T13:46:23.294Z,47.00
2017-10-03T13:48:52.865Z,47.00
2017-10-03T13:51:21.551Z,47.90
2017-10-03T13:53:50.231Z,47.60
2017-10-03T13:56:18.922Z,48.00
2017-10-03T13:58:53.768Z,47.50
2017-10-03T14:01:28.556Z,47.70
2017-10-03T14:04:03.529Z,48.30
2017-10-03T14:06:38.347Z,48.90
2017-10-03T14:09:07.046Z,49.10
2017-10-03T14:11:35.736Z,50.00
2017-10-03T14:14:04.419Z,51.20
2017-10-03T14:16:40.203Z,51.40
2017-10-03T14:19:08.887Z,50.90
2017-10-03T14:21:37.591Z,51.40
2017-10-03T14:24:06.303Z,50.10
2017-10-03T14:26:42.015Z,48.90
2017-10-03T14:29:10.695Z,48.80
2017-10-03T14:31:45.544Z,44.80
2017-10-03T14:34:20.539Z,40.40
2017-10-03T14:36:49.347Z,36.40
2017-10-03T14:39:24.359Z,33.20
2017-10-03T14:41:53.063Z,31.30
2017-10-03T14:44:21.748Z,30.60
2017-10-03T14:46:56.720Z,32.10
2017-10-03T14:49:28.469Z,31.90
2017-10-03T14:51:57.943Z,34.50
2017-10-03T14:54:32.744Z,34.50
2017-10-03T14:57:07.754Z,36.40
2017-10-03T14:59:36.423Z,37.60
2017-10-03T15:02:18.246Z,38.40
2017-10-03T15:04:46.928Z,39.50
2017-10-03T15:07:21.835Z,40.00
2017-10-03T15:09:56.786Z,40.70
2017-10-03T15:12:30.262Z,41.10
2017-10-03T15:14:58.949Z,41.00
2017-10-03T15:17:34.611Z,36.30
2017-10-03T15:20:10.153Z,34.10
2017-10-03T15:22:45.107Z,34.10
2017-10-03T15:25:13.791Z,32.30
2017-10-03T15:27:42.511Z,31.80
2017-10-03T15:30:17.488Z,31.10
2017-10-03T15:32:46.165Z,30.60
2017-10-03T15:35:14.859Z,31.00
2017-10-03T15:37:49.691Z,31.20
2017-10-03T15:40:23.533Z,32.00
2017-10-03T15:42:52.213Z,33.70
2017-10-03T15:45:22.560Z,36.90
2017-10-03T15:47:51.318Z,36.80
2017-10-03T15:50:20.079Z,38.90
2017-10-03T15:52:48.763Z,40.30
2017-10-03T15:55:24.988Z,39.90
2017-10-03T15:57:53.722Z,40.20
2017-10-03T16:00:22.522Z,40.00
2017-10-03T16:02:51.321Z,41.20
2017-10-03T16:05:23.007Z,42.10
2017-10-03T16:07:51.700Z,43.50
2017-10-03T16:10:21.144Z,45.40
2017-10-03T16:12:49.835Z,45.40
2017-10-03T16:15:18.531Z,45.30
2017-10-03T16:17:47.219Z,45.00
2017-10-03T16:20:16.715Z,47.90
2017-10-03T16:22:45.428Z,47.90
2017-10-03T16:25:20.387Z,47.90
2017-10-03T16:27:49.103Z,49.40
2017-10-03T16:30:23.998Z,50.50
2017-10-03T16:32:58.906Z,51.50
2017-10-03T16:35:28.407Z,53.60
2017-10-03T16:38:05.299Z,54.20
2017-10-03T16:40:41.067Z,54.60
2017-10-03T16:43:10.133Z,54.60
2017-10-03T16:45:38.808Z,55.00
2017-10-03T16:48:08.264Z,55.10
2017-10-03T16:50:43.233Z,55.80
2017-10-03T16:53:11.916Z,55.50
2017-10-03T16:55:41.477Z,56.00
2017-10-03T16:58:11.106Z,56.60
2017-10-03T17:00:40.302Z,56.80
2017-10-03T17:03:10.009Z,57.40
2017-10-03T17:05:39.499Z,57.80
2017-10-03T17:08:08.947Z,59.00
2017-10-03T17:10:40.704Z,58.20
2017-10-03T17:13:16.251Z,58.80
2017-10-03T17:15:51.208Z,58.80
2017-10-03T17:18:26.144Z,59.20
2017-10-03T17:21:01.214Z,59.10
2017-10-03T17:23:30.136Z,59.30
2017-10-03T17:25:58.844Z,59.30
2017-10-03T17:28:27.537Z,59.60
2017-10-03T17:30:56.239Z,59.90
2017-10-03T17:33:25.917Z,60.10
2017-10-03T17:35:54.637Z,60.10
2017-10-03T17:38:23.340Z,60.30
2017-10-03T17:40:52.072Z,60.50
2017-10-03T17:43:20.914Z,60.70
2017-10-03T17:45:50.379Z,61.60
2017-10-03T17:48:25.395Z,61.60
2017-10-03T17:50:54.087Z,61.80
2017-10-03T17:53:29.083Z,61.90
2017-10-03T17:55:58.532Z,61.70
2017-10-03T17:58:27.370Z,61.60
2017-10-03T18:00:56.259Z,61.90
2017-10-03T18:03:31.163Z,62.00
2017-10-03T18:05:59.864Z,62.00
2017-10-03T18:08:29.696Z,62.00
2017-10-03T18:10:59.201Z,62.00
2017-10-03T18:13:34.041Z,62.70
2017-10-03T18:16:02.739Z,62.40
2017-10-03T18:18:31.428Z,62.70
2017-10-03T18:21:00.115Z,63.20
2017-10-03T18:23:29.634Z,63.10
2017-10-03T18:26:04.536Z,63.00
2017-10-03T18:28:39.538Z,63.00
2017-10-03T18:31:08.285Z,63.00
2017-10-03T18:33:43.296Z,63.00
2017-10-03T18:36:18.256Z,63.00
2017-10-03T18:38:53.185Z,62.80
2017-10-03T18:41:28.076Z,62.60
2017-10-03T18:43:56.782Z,62.60
2017-10-03T18:46:31.616Z,62.60
2017-10-03T18:49:06.408Z,62.80
2017-10-03T18:51:35.191Z,63.00
2017-10-03T18:54:04.727Z,63.00
2017-10-03T18:56:39.703Z,63.00
2017-10-03T18:59:14.740Z,62.80
2017-10-03T19:01:43.462Z,63.00
2017-10-03T19:04:12.160Z,63.40
2017-10-03T19:06:46.966Z,63.70
2017-10-03T19:09:21.902Z,63.90
2017-10-03T19:11:50.623Z,63.80
2017-10-03T19:14:25.617Z,63.80
2017-10-03T19:16:54.516Z,64.00
2017-10-03T19:19:23.181Z,64.00
2017-10-03T19:21:52.823Z,64.00
2017-10-03T19:24:27.636Z,64.00
2017-10-03T19:27:02.651Z,64.00
2017-10-03T19:29:31.445Z,63.90
2017-10-03T19:32:06.501Z,63.80
2017-10-03T19:34:36.267Z,63.70
2017-10-03T19:37:04.940Z,63.80
2017-10-03T19:39:39.880Z,63.90
2017-10-03T19:42:14.929Z,64.10
2017-10-03T19:44:43.620Z,64.20
2017-10-03T19:47:19.296Z,64.10
2017-10-03T19:49:54.656Z,64.20
2017-10-03T19:52:23.509Z,64.20
2017-10-03T19:54:52.284Z,64.20
2017-10-03T19:57:20.969Z,64.40
2017-10-03T19:59:50.378Z,64.60
2017-10-03T20:02:20.004Z,64.60
2017-10-03T20:04:49.581Z,64.90
2017-10-03T20:07:24.709Z,64.90
2017-10-03T20:09:54.179Z,64.80
2017-10-03T20:12:29.259Z,64.80
2017-10-03T20:14:58.355Z,64.60
2017-10-03T20:17:28.012Z,64.30
2017-10-03T20:19:56.768Z,64.30
2017-10-03T20:22:31.926Z,64.10
2017-10-03T20:25:01.383Z,64.00
2017-10-03T20:27:30.266Z,64.00
2017-10-03T20:29:59.127Z,63.80
2017-10-03T20:32:32.075Z,63.80
2017-10-03T20:35:00.964Z,63.60
2017-10-03T20:37:35.975Z,63.60
2017-10-03T20:40:05.013Z,63.40
2017-10-03T20:42:34.483Z,63.70
2017-10-03T20:45:09.748Z,63.70
2017-10-03T20:47:45.334Z,63.50
2017-10-03T20:50:14.202Z,63.00
2017-10-03T20:52:43.911Z,63.20
2017-10-03T20:55:19.140Z,63.40
2017-10-03T20:57:48.837Z,63.90
2017-10-03T21:00:18.735Z,63.90
2017-10-03T21:02:49.401Z,64.10
2017-10-03T21:05:18.284Z,64.40
2017-10-03T21:07:47.868Z,65.30
2017-10-03T21:10:16.807Z,64.60
2017-10-03T21:12:45.488Z,64.40
2017-10-03T21:15:20.520Z,64.60
2017-10-03T21:17:49.487Z,64.70
2017-10-03T21:20:19.277Z,65.20
2017-10-03T21:22:48.279Z,65.10
2017-10-03T21:25:17.841Z,64.80
2017-10-03T21:27:52.816Z,64.80
2017-10-03T21:30:21.499Z,64.40
2017-10-03T21:32:50.253Z,64.30
2017-10-03T21:35:18.949Z,64.10
2017-10-03T21:37:47.644Z,64.30
2017-10-03T21:40:16.352Z,64.20
2017-10-03T21:43:09.940Z,63.60
2017-10-03T21:45:44.791Z,63.60
2017-10-03T21:48:13.475Z,63.60
2017-10-03T21:50:42.256Z,63.80
2017-10-03T21:53:12.701Z,63.60
2017-10-03T21:55:44.535Z,63.60
2017-10-03T21:58:14.072Z,63.60
2017-10-03T22:00:42.751Z,63.50
2017-10-03T22:03:11.423Z,63.30
2017-10-03T22:05:40.989Z,63.20
2017-10-03T22:08:10.525Z,64.00
2017-10-03T22:10:50.182Z,63.30
2017-10-03T22:13:21.971Z,63.40
2017-10-03T22:15:50.659Z,63.40
2017-10-03T22:18:19.423Z,63.40
2017-10-03T22:20:48.083Z,63.50
2017-10-03T22:23:16.772Z,63.60
2017-10-03T22:25:45.477Z,63.70
2017-10-03T22:28:21.143Z,63.50
2017-10-03T22:30:49.823Z,63.40
2017-10-03T22:33:18.512Z,63.20
2017-10-03T22:35:53.347Z,63.10
2017-10-03T22:38:22.895Z,63.10
2017-10-03T22:40:52.336Z,62.90
2017-10-03T22:43:21.026Z,62.70
2017-10-03T22:45:49.696Z,62.60
2017-10-03T22:48:18.386Z,62.60
2017-10-03T22:50:53.307Z,62.90
2017-10-03T22:53:28.797Z,62.80
2017-10-03T22:56:22.026Z,62.90
2017-10-03T22:58:50.708Z,63.10
2017-10-03T23:01:19.380Z,63.40
2017-10-03T23:03:48.071Z,63.50
2017-10-03T23:06:16.744Z,63.80
2017-10-03T23:08:45.427Z,63.80
2017-10-03T23:11:14.875Z,63.60
2017-10-03T23:13:43.565Z,63.60
2017-10-03T23:16:18.459Z,63.60
2017-10-03T23:18:47.144Z,63.60
2017-10-03T23:21:15.815Z,63.50
2017-10-03T23:23:45.271Z,63.40
2017-10-03T23:26:20.092Z,63.40
2017-10-03T23:28:48.780Z,63.30
2017-10-03T23:31:21.358Z,63.40
2017-10-03T23:33:50.056Z,63.30
2017-10-03T23:36:18.727Z,63.10
2017-10-03T23:38:47.416Z,63.00
2017-10-03T23:41:16.262Z,62.80
2017-10-03T23:43:44.914Z,62.90
2017-10-03T23:46:13.600Z,63.00
2017-10-03T23:48:42.273Z,63.00
2017-10-03T23:51:10.955Z,63.30
2017-10-03T23:53:41.567Z,63.30
2017-10-03T23:56:16.383Z,63.40
2017-10-03T23:58:45.056Z,63.50
